sensor_id;sensor_type;location;lat;lon;timestamp;pressure;altitude;pressure_sealevel;temperature;humidity
75418;BME280;63997;52.112;5.420;2023-04-24T00:00:32;99938.69;;;9.22;90.81
75418;BME280;63997;52.112;5.420;2023-04-24T00:02:58;99956.50;;;9.22;90.83
75418;BME280;63997;52.112;5.420;2023-04-24T00:05:25;99957.25;;;9.22;91.15
75418;BME280;63997;52.112;5.420;2023-04-24T00:07:51;99959.91;;;9.22;91.31
75418;BME280;63997;52.112;5.420;2023-04-24T00:10:21;99953.84;;;9.22;91.31
75418;BME280;63997;52.112;5.420;2023-04-24T00:12:48;99956.03;;;9.20;91.42
75418;BME280;63997;52.112;5.420;2023-04-24T00:15:14;99958.69;;;9.20;91.31
75418;BME280;63997;52.112;5.420;2023-04-24T00:17:41;99956.03;;;9.20;91.41
75418;BME280;63997;52.112;5.420;2023-04-24T00:20:07;99960.56;;;9.19;91.33
75418;BME280;63997;52.112;5.420;2023-04-24T00:22:34;99970.88;;;9.21;91.50
75418;BME280;63997;52.112;5.420;2023-04-24T00:25:00;99965.88;;;9.19;91.51
75418;BME280;63997;52.112;5.420;2023-04-24T00:27:27;99963.22;;;9.19;91.67
75418;BME280;63997;52.112;5.420;2023-04-24T00:29:53;99972.75;;;9.20;91.53
75418;BME280;63997;52.112;5.420;2023-04-24T00:32:19;99978.38;;;9.19;91.55
75418;BME280;63997;52.112;5.420;2023-04-24T00:34:46;99971.84;;;9.16;91.55
75418;BME280;63997;52.112;5.420;2023-04-24T00:37:12;99971.84;;;9.16;91.48
75418;BME280;63997;52.112;5.420;2023-04-24T00:39:39;99967.66;;;9.15;91.78
75418;BME280;63997;52.112;5.420;2023-04-24T00:42:06;99970.19;;;9.12;91.56
75418;BME280;63997;52.112;5.420;2023-04-24T00:44:33;99973.59;;;9.12;91.66
75418;BME280;63997;52.112;5.420;2023-04-24T00:47:01;99978.16;;;9.12;91.58
75418;BME280;63997;52.112;5.420;2023-04-24T00:49:27;99975.81;;;9.10;91.54
75418;BME280;63997;52.112;5.420;2023-04-24T00:51:54;99976.59;;;9.11;91.70
75418;BME280;63997;52.112;5.420;2023-04-24T00:54:23;99989.41;;;9.09;91.71
75418;BME280;63997;52.112;5.420;2023-04-24T00:56:49;99983.78;;;9.10;91.86
75418;BME280;63997;52.112;5.420;2023-04-24T00:59:17;99987.53;;;9.09;91.91
75418;BME280;63997;52.112;5.420;2023-04-24T01:01:45;99988.31;;;9.10;91.90
75418;BME280;63997;52.112;5.420;2023-04-24T01:04:12;99989.09;;;9.10;91.92
75418;BME280;63997;52.112;5.420;2023-04-24T01:06:40;100001.69;;;9.13;91.95
75418;BME280;63997;52.112;5.420;2023-04-24T01:09:07;99992.19;;;9.12;91.95
75418;BME280;63997;52.112;5.420;2023-04-24T01:11:36;99976.94;;;9.09;92.03
75418;BME280;63997;52.112;5.420;2023-04-24T01:14:03;99994.41;;;9.10;92.09
75418;BME280;63997;52.112;5.420;2023-04-24T01:16:30;99998.16;;;9.09;92.01
75418;BME280;63997;52.112;5.420;2023-04-24T01:18:56;99992.38;;;9.07;92.07
75418;BME280;63997;52.112;5.420;2023-04-24T01:21:23;100003.78;;;9.08;91.95
75418;BME280;63997;52.112;5.420;2023-04-24T01:23:54;100001.13;;;9.08;92.12
75418;BME280;63997;52.112;5.420;2023-04-24T01:26:22;100010.19;;;9.07;92.19
75418;BME280;63997;52.112;5.420;2023-04-24T01:28:48;100002.22;;;9.07;92.00
75418;BME280;63997;52.112;5.420;2023-04-24T01:31:15;100010.31;;;9.10;92.15
75418;BME280;63997;52.112;5.420;2023-04-24T01:33:43;100009.53;;;9.10;92.23
75418;BME280;63997;52.112;5.420;2023-04-24T01:36:13;100009.84;;;9.08;92.16
75418;BME280;63997;52.112;5.420;2023-04-24T01:38:40;100004.53;;;9.08;92.15
75418;BME280;63997;52.112;5.420;2023-04-24T01:41:06;100003.47;;;9.09;92.25
75418;BME280;63997;52.112;5.420;2023-04-24T01:43:33;100006.97;;;9.13;92.31
75418;BME280;63997;52.112;5.420;2023-04-24T01:45:59;100006.97;;;9.13;92.41
75418;BME280;63997;52.112;5.420;2023-04-24T01:48:26;100009.63;;;9.13;92.48
75418;BME280;63997;52.112;5.420;2023-04-24T01:50:53;100007.31;;;9.12;92.44
75418;BME280;63997;52.112;5.420;2023-04-24T01:53:19;100014.16;;;9.13;92.52
75418;BME280;63997;52.112;5.420;2023-04-24T01:55:46;100013.84;;;9.14;92.70
75418;BME280;63997;52.112;5.420;2023-04-24T01:58:12;100012.75;;;9.15;92.78
75418;BME280;63997;52.112;5.420;2023-04-24T02:00:39;100010.53;;;9.17;92.72
75418;BME280;63997;52.112;5.420;2023-04-24T02:03:05;100009.00;;;9.16;92.80
75418;BME280;63997;52.112;5.420;2023-04-24T02:05:32;100015.06;;;9.17;92.70
75418;BME280;63997;52.112;5.420;2023-04-24T02:07:58;100008.66;;;9.18;92.57
75418;BME280;63997;52.112;5.420;2023-04-24T02:10:25;100006.34;;;9.16;92.53
75418;BME280;63997;52.112;5.420;2023-04-24T02:12:51;100010.09;;;9.15;92.37
75418;BME280;63997;52.112;5.420;2023-04-24T02:15:18;100006.69;;;9.15;92.33
75418;BME280;63997;52.112;5.420;2023-04-24T02:17:44;100016.47;;;9.14;92.32
75418;BME280;63997;52.112;5.420;2023-04-24T02:20:11;100011.97;;;9.15;92.33
75418;BME280;63997;52.112;5.420;2023-04-24T02:22:37;100015.41;;;9.15;92.22
75418;BME280;63997;52.112;5.420;2023-04-24T02:25:04;100011.31;;;9.18;92.37
75418;BME280;63997;52.112;5.420;2023-04-24T02:27:31;100006.34;;;9.16;92.34
75418;BME280;63997;52.112;5.420;2023-04-24T02:29:57;100004.47;;;9.17;92.22
75418;BME280;63997;52.112;5.420;2023-04-24T02:32:23;99998.38;;;9.16;92.25
75418;BME280;63997;52.112;5.420;2023-04-24T02:34:50;100005.22;;;9.17;92.03
75418;BME280;63997;52.112;5.420;2023-04-24T02:37:16;100006.00;;;9.18;92.08
75418;BME280;63997;52.112;5.420;2023-04-24T02:39:43;100006.78;;;9.18;92.40
75418;BME280;63997;52.112;5.420;2023-04-24T02:42:09;100009.44;;;9.18;92.04
75418;BME280;63997;52.112;5.420;2023-04-24T02:44:36;100010.53;;;9.17;91.95
75418;BME280;63997;52.112;5.420;2023-04-24T02:47:02;100009.00;;;9.16;91.82
75418;BME280;63997;52.112;5.420;2023-04-24T02:49:29;100005.22;;;9.17;92.18
75418;BME280;63997;52.112;5.420;2023-04-24T02:51:56;100007.88;;;9.17;92.10
75418;BME280;63997;52.112;5.420;2023-04-24T02:54:22;100008.66;;;9.18;92.24
75418;BME280;63997;52.112;5.420;2023-04-24T02:56:49;100014.28;;;9.16;92.22
75418;BME280;63997;52.112;5.420;2023-04-24T02:59:15;100009.00;;;9.16;92.25
75418;BME280;63997;52.112;5.420;2023-04-24T03:01:42;100004.13;;;9.18;92.36
75418;BME280;63997;52.112;5.420;2023-04-24T03:04:08;100003.69;;;9.16;92.14
75418;BME280;63997;52.112;5.420;2023-04-24T03:06:35;99998.38;;;9.16;92.37
75418;BME280;63997;52.112;5.420;2023-04-24T03:09:02;100000.25;;;9.16;92.21
75418;BME280;63997;52.112;5.420;2023-04-24T03:11:29;100002.56;;;9.17;92.19
75418;BME280;63997;52.112;5.420;2023-04-24T03:13:56;100010.09;;;9.15;92.36
75418;BME280;63997;52.112;5.420;2023-04-24T03:16:22;100003.22;;;9.14;92.24
75418;BME280;63997;52.112;5.420;2023-04-24T03:18:48;100000.56;;;9.14;92.35
75418;BME280;63997;52.112;5.420;2023-04-24T03:21:15;100005.56;;;9.16;92.40
75418;BME280;63997;52.112;5.420;2023-04-24T03:23:41;100010.88;;;9.16;92.53
75418;BME280;63997;52.112;5.420;2023-04-24T03:26:07;100003.69;;;9.16;92.44
75418;BME280;63997;52.112;5.420;2023-04-24T03:28:34;100004.47;;;9.17;92.56
75418;BME280;63997;52.112;5.420;2023-04-24T03:31:00;100007.88;;;9.17;92.54
75418;BME280;63997;52.112;5.420;2023-04-24T03:33:27;100008.31;;;9.19;92.20
75418;BME280;63997;52.112;5.420;2023-04-24T03:35:53;100010.19;;;9.19;92.30
75418;BME280;63997;52.112;5.420;2023-04-24T03:38:19;100015.19;;;9.20;92.46
75418;BME280;63997;52.112;5.420;2023-04-24T03:40:46;100006.56;;;9.23;92.64
75418;BME280;63997;52.112;5.420;2023-04-24T03:43:12;100011.09;;;9.23;92.64
75418;BME280;63997;52.112;5.420;2023-04-24T03:45:39;100014.94;;;9.25;92.58
75418;BME280;63997;52.112;5.420;2023-04-24T03:48:05;100005.44;;;9.24;92.74
75418;BME280;63997;52.112;5.420;2023-04-24T03:50:32;100009.22;;;9.23;92.44
75418;BME280;63997;52.112;5.420;2023-04-24T03:52:58;100007.66;;;9.22;92.35
75418;BME280;63997;52.112;5.420;2023-04-24T03:55:24;100010.66;;;9.21;92.51
75418;BME280;63997;52.112;5.420;2023-04-24T03:57:51;100008.44;;;9.23;92.68
75418;BME280;63997;52.112;5.420;2023-04-24T04:00:17;100011.88;;;9.23;92.40
75418;BME280;63997;52.112;5.420;2023-04-24T04:02:44;100019.19;;;9.26;92.45
75418;BME280;63997;52.112;5.420;2023-04-24T04:05:11;100022.91;;;9.25;92.51
75418;BME280;63997;52.112;5.420;2023-04-24T04:07:37;100017.59;;;9.25;92.38
75418;BME280;63997;52.112;5.420;2023-04-24T04:10:04;100028.56;;;9.24;92.52
75418;BME280;63997;52.112;5.420;2023-04-24T04:12:33;100029.66;;;9.23;92.40
75418;BME280;63997;52.112;5.420;2023-04-24T04:14:59;100027.44;;;9.25;92.62
75418;BME280;63997;52.112;5.420;2023-04-24T04:17:26;100031.34;;;9.27;92.47
75418;BME280;63997;52.112;5.420;2023-04-24T04:19:52;100030.22;;;9.28;92.63
75418;BME280;63997;52.112;5.420;2023-04-24T04:22:18;100038.53;;;9.27;92.46
75418;BME280;63997;52.112;5.420;2023-04-24T04:24:45;100032.75;;;9.25;92.50
75418;BME280;63997;52.112;5.420;2023-04-24T04:27:12;100033.44;;;9.22;92.59
75418;BME280;63997;52.112;5.420;2023-04-24T04:29:39;100032.66;;;9.21;92.22
75418;BME280;63997;52.112;5.420;2023-04-24T04:32:06;100038.59;;;9.18;92.44
75418;BME280;63997;52.112;5.420;2023-04-24T04:34:33;100046.13;;;9.16;92.34
75418;BME280;63997;52.112;5.420;2023-04-24T04:36:59;100047.25;;;9.15;92.48
75418;BME280;63997;52.112;5.420;2023-04-24T04:39:27;100047.25;;;9.15;92.15
75418;BME280;63997;52.112;5.420;2023-04-24T04:41:57;100050.97;;;9.14;92.43
75418;BME280;63997;52.112;5.420;2023-04-24T04:44:24;100055.19;;;9.15;92.21
75418;BME280;63997;52.112;5.420;2023-04-24T04:46:53;100060.50;;;9.15;92.22
75418;BME280;63997;52.112;5.420;2023-04-24T04:49:22;100063.47;;;9.14;91.97
75418;BME280;63997;52.112;5.420;2023-04-24T04:51:49;100066.13;;;9.14;92.05
75418;BME280;63997;52.112;5.420;2023-04-24T04:54:17;100064.22;;;9.14;92.18
75418;BME280;63997;52.112;5.420;2023-04-24T04:56:43;100073.28;;;9.13;91.86
75418;BME280;63997;52.112;5.420;2023-04-24T04:59:09;100075.94;;;9.13;91.76
75418;BME280;63997;52.112;5.420;2023-04-24T05:01:37;100081.59;;;9.12;91.93
75418;BME280;63997;52.112;5.420;2023-04-24T05:04:03;100078.59;;;9.13;92.04
75418;BME280;63997;52.112;5.420;2023-04-24T05:06:30;100087.03;;;9.15;91.83
75418;BME280;63997;52.112;5.420;2023-04-24T05:08:57;100078.59;;;9.13;91.94
75418;BME280;63997;52.112;5.420;2023-04-24T05:11:23;100091.88;;;9.13;92.20
75418;BME280;63997;52.112;5.420;2023-04-24T05:13:50;100096.88;;;9.15;92.36
75418;BME280;63997;52.112;5.420;2023-04-24T05:16:16;100107.72;;;9.22;92.32
75418;BME280;63997;52.112;5.420;2023-04-24T05:18:42;100104.38;;;9.25;92.46
75418;BME280;63997;52.112;5.420;2023-04-24T05:21:09;100107.81;;;9.25;92.37
75418;BME280;63997;52.112;5.420;2023-04-24T05:23:35;100106.72;;;9.26;92.28
75418;BME280;63997;52.112;5.420;2023-04-24T05:26:02;100110.25;;;9.31;92.30
75418;BME280;63997;52.112;5.420;2023-04-24T05:28:30;100113.47;;;9.36;92.76
75418;BME280;63997;52.112;5.420;2023-04-24T05:30:57;100124.56;;;9.38;92.63
75418;BME280;63997;52.112;5.420;2023-04-24T05:33:25;100123.78;;;9.38;92.51
75418;BME280;63997;52.112;5.420;2023-04-24T05:35:51;100122.69;;;9.39;92.50
75418;BME280;63997;52.112;5.420;2023-04-24T05:38:18;100128.44;;;9.41;92.83
75418;BME280;63997;52.112;5.420;2023-04-24T05:40:45;100131.09;;;9.41;92.27
75418;BME280;63997;52.112;5.420;2023-04-24T05:43:12;100144.81;;;9.43;92.29
75418;BME280;63997;52.112;5.420;2023-04-24T05:45:39;100150.13;;;9.43;92.48
75418;BME280;63997;52.112;5.420;2023-04-24T05:48:05;100151.19;;;9.42;92.36
75418;BME280;63997;52.112;5.420;2023-04-24T05:50:32;100161.81;;;9.42;92.32
75418;BME280;63997;52.112;5.420;2023-04-24T05:53:01;100159.94;;;9.42;92.02
75418;BME280;63997;52.112;5.420;2023-04-24T05:55:29;100161.38;;;9.40;92.07
75418;BME280;63997;52.112;5.420;2023-04-24T05:57:56;100165.91;;;9.39;92.33
75418;BME280;63997;52.112;5.420;2023-04-24T06:00:23;100168.13;;;9.37;92.13
75418;BME280;63997;52.112;5.420;2023-04-24T06:02:50;100176.88;;;9.38;92.05
75418;BME280;63997;52.112;5.420;2023-04-24T06:05:18;100177.16;;;9.36;91.87
75418;BME280;63997;52.112;5.420;2023-04-24T06:07:44;100187.69;;;9.33;91.85
75418;BME280;63997;52.112;5.420;2023-04-24T06:10:11;100192.06;;;9.28;91.71
75418;BME280;63997;52.112;5.420;2023-04-24T06:12:37;100198.50;;;9.27;91.59
75418;BME280;63997;52.112;5.420;2023-04-24T06:15:04;100202.88;;;9.23;91.71
75418;BME280;63997;52.112;5.420;2023-04-24T06:17:33;100200.56;;;9.22;91.53
75418;BME280;63997;52.112;5.420;2023-04-24T06:19:59;100200.09;;;9.20;91.41
75418;BME280;63997;52.112;5.420;2023-04-24T06:22:26;100222.13;;;9.20;91.61
75418;BME280;63997;52.112;5.420;2023-04-24T06:24:52;100216.34;;;9.18;91.47
75418;BME280;63997;52.112;5.420;2023-04-24T06:27:18;100217.44;;;9.17;91.38
75418;BME280;63997;52.112;5.420;2023-04-24T06:29:45;100231.34;;;9.14;91.22
75418;BME280;63997;52.112;5.420;2023-04-24T06:32:11;100238.53;;;9.14;91.17
75418;BME280;63997;52.112;5.420;2023-04-24T06:34:37;100243.06;;;9.13;91.24
75418;BME280;63997;52.112;5.420;2023-04-24T06:37:04;100247.16;;;9.11;91.36
75418;BME280;63997;52.112;5.420;2023-04-24T06:39:30;100252.00;;;9.09;91.25
75418;BME280;63997;52.112;5.420;2023-04-24T06:41:57;100250.78;;;9.06;91.51
75418;BME280;63997;52.112;5.420;2023-04-24T06:44:23;100260.16;;;9.04;91.49
75418;BME280;63997;52.112;5.420;2023-04-24T06:46:49;100265.91;;;9.06;91.47
75418;BME280;63997;52.112;5.420;2023-04-24T06:49:16;100265.47;;;9.04;91.16
75418;BME280;63997;52.112;5.420;2023-04-24T06:51:42;100279.38;;;9.00;91.05
75418;BME280;63997;52.112;5.420;2023-04-24T06:54:09;100279.53;;;8.95;90.97
75418;BME280;63997;52.112;5.420;2023-04-24T06:56:35;100289.38;;;8.95;91.20
75418;BME280;63997;52.112;5.420;2023-04-24T06:59:02;100297.66;;;8.93;91.00
75418;BME280;63997;52.112;5.420;2023-04-24T07:01:28;100300.03;;;8.86;90.88
75418;BME280;63997;52.112;5.420;2023-04-24T07:03:54;100302.66;;;8.86;90.97
75418;BME280;63997;52.112;5.420;2023-04-24T07:06:21;100317.69;;;8.82;90.86
75418;BME280;63997;52.112;5.420;2023-04-24T07:08:49;100316.44;;;8.80;90.85
75418;BME280;63997;52.112;5.420;2023-04-24T07:11:15;100316.63;;;8.74;90.68
75418;BME280;63997;52.112;5.420;2023-04-24T07:13:41;100323.97;;;8.69;90.86
75418;BME280;63997;52.112;5.420;2023-04-24T07:16:08;100342.22;;;8.70;91.11
75418;BME280;63997;52.112;5.420;2023-04-24T07:18:35;100338.31;;;8.68;91.03
75418;BME280;63997;52.112;5.420;2023-04-24T07:21:02;100363.59;;;8.65;90.95
75418;BME280;63997;52.112;5.420;2023-04-24T07:23:29;100369.06;;;8.60;90.66
75418;BME280;63997;52.112;5.420;2023-04-24T07:25:55;100349.91;;;8.55;90.67
75418;BME280;63997;52.112;5.420;2023-04-24T07:28:22;100376.25;;;8.51;90.57
75418;BME280;63997;52.112;5.420;2023-04-24T07:30:48;100381.56;;;8.51;90.90
75418;BME280;63997;52.112;5.420;2023-04-24T07:33:14;100384.69;;;8.53;91.26
75418;BME280;63997;52.112;5.420;2023-04-24T07:35:42;100389.19;;;8.53;90.97
75418;BME280;63997;52.112;5.420;2023-04-24T07:38:08;100396.38;;;8.52;90.86
75418;BME280;63997;52.112;5.420;2023-04-24T07:40:34;100395.28;;;8.53;90.90
75418;BME280;63997;52.112;5.420;2023-04-24T07:43:01;100406.03;;;8.57;91.21
75418;BME280;63997;52.112;5.420;2023-04-24T07:45:27;100418.94;;;8.58;91.15
75418;BME280;63997;52.112;5.420;2023-04-24T07:47:54;100419.59;;;8.55;90.94
75418;BME280;63997;52.112;5.420;2023-04-24T07:50:21;100427.22;;;8.57;90.92
75418;BME280;63997;52.112;5.420;2023-04-24T07:52:48;100429.56;;;8.58;90.70
75418;BME280;63997;52.112;5.420;2023-04-24T07:55:14;100430.66;;;8.57;90.41
75418;BME280;63997;52.112;5.420;2023-04-24T07:57:41;100438.59;;;8.57;90.51
75418;BME280;63997;52.112;5.420;2023-04-24T08:00:08;100433.91;;;8.63;90.73
75418;BME280;63997;52.112;5.420;2023-04-24T08:02:34;100440.94;;;8.67;91.22
75418;BME280;63997;52.112;5.420;2023-04-24T08:05:01;100445.28;;;8.72;91.43
75418;BME280;63997;52.112;5.420;2023-04-24T08:07:29;100452.31;;;8.77;91.53
75418;BME280;63997;52.112;5.420;2023-04-24T08:09:55;100454.63;;;8.78;91.51
75418;BME280;63997;52.112;5.420;2023-04-24T08:12:22;100466.78;;;8.79;91.48
75418;BME280;63997;52.112;5.420;2023-04-24T08:14:48;100475.06;;;8.78;91.48
75418;BME280;63997;52.112;5.420;2023-04-24T08:17:16;100485.03;;;8.81;91.28
75418;BME280;63997;52.112;5.420;2023-04-24T08:19:43;100490.03;;;8.73;90.85
75418;BME280;63997;52.112;5.420;2023-04-24T08:22:17;100498.16;;;8.68;90.76
75418;BME280;63997;52.112;5.420;2023-04-24T08:24:43;100511.88;;;8.70;91.06
75418;BME280;63997;52.112;5.420;2023-04-24T08:27:11;100507.03;;;8.72;91.31
75418;BME280;63997;52.112;5.420;2023-04-24T08:29:37;100523.56;;;8.69;90.95
75418;BME280;63997;52.112;5.420;2023-04-24T08:32:04;100531.06;;;8.67;90.70
75418;BME280;63997;52.112;5.420;2023-04-24T08:34:30;100530.59;;;8.65;90.34
75418;BME280;63997;52.112;5.420;2023-04-24T08:36:57;100543.38;;;8.63;90.20
75418;BME280;63997;52.112;5.420;2023-04-24T08:39:24;100539.00;;;8.67;90.47
75418;BME280;63997;52.112;5.420;2023-04-24T08:41:52;100543.38;;;8.72;90.68
75418;BME280;63997;52.112;5.420;2023-04-24T08:44:19;100542.44;;;8.77;90.23
75418;BME280;63997;52.112;5.420;2023-04-24T08:46:47;100544.78;;;8.78;90.20
75418;BME280;63997;52.112;5.420;2023-04-24T08:49:15;100548.50;;;8.86;90.13
75418;BME280;63997;52.112;5.420;2023-04-24T08:51:43;100556.00;;;8.92;90.24
75418;BME280;63997;52.112;5.420;2023-04-24T08:54:11;100570.34;;;8.91;89.44
75418;BME280;63997;52.112;5.420;2023-04-24T08:56:38;100570.03;;;8.93;88.66
75418;BME280;63997;52.112;5.420;2023-04-24T08:59:06;100574.53;;;9.01;87.70
75418;BME280;63997;52.112;5.420;2023-04-24T09:01:33;100570.00;;;9.01;88.15
75418;BME280;63997;52.112;5.420;2023-04-24T09:04:03;100583.75;;;9.04;87.96
75418;BME280;63997;52.112;5.420;2023-04-24T09:06:30;100578.44;;;9.04;85.39
75418;BME280;63997;52.112;5.420;2023-04-24T09:09:01;100586.56;;;8.98;86.43
75418;BME280;63997;52.112;5.420;2023-04-24T09:11:30;100596.41;;;8.98;85.04
75418;BME280;63997;52.112;5.420;2023-04-24T09:13:56;100594.19;;;9.00;85.90
75418;BME280;63997;52.112;5.420;2023-04-24T09:16:25;100599.81;;;9.07;86.83
75418;BME280;63997;52.112;5.420;2023-04-24T09:18:52;100597.16;;;9.16;85.56
75418;BME280;63997;52.112;5.420;2023-04-24T09:21:21;100599.78;;;9.24;86.26
75418;BME280;63997;52.112;5.420;2023-04-24T09:23:58;100607.69;;;9.42;86.93
75418;BME280;63997;52.112;5.420;2023-04-24T09:26:25;100616.25;;;9.56;87.14
75418;BME280;63997;52.112;5.420;2023-04-24T09:28:53;100615.13;;;9.66;86.56
75418;BME280;63997;52.112;5.420;2023-04-24T09:31:20;100618.34;;;9.80;85.18
75418;BME280;63997;52.112;5.420;2023-04-24T09:33:59;100611.56;;;10.00;85.98
75418;BME280;63997;52.112;5.420;2023-04-24T09:36:38;100614.31;;;10.12;84.83
75418;BME280;63997;52.112;5.420;2023-04-24T09:39:13;100626.75;;;10.20;83.91
75418;BME280;63997;52.112;5.420;2023-04-24T09:44:21;100640.88;;;10.42;82.86
75418;BME280;63997;52.112;5.420;2023-04-24T09:46:58;100645.56;;;10.45;82.53
75418;BME280;63997;52.112;5.420;2023-04-24T09:49:29;100638.31;;;10.54;81.84
75418;BME280;63997;52.112;5.420;2023-04-24T09:54:29;100657.41;;;10.18;81.21
75418;BME280;63997;52.112;5.420;2023-04-24T09:56:56;100663.44;;;9.97;79.95
75418;BME280;63997;52.112;5.420;2023-04-24T09:59:23;100665.03;;;9.90;81.06
75418;BME280;63997;52.112;5.420;2023-04-24T10:01:50;100667.41;;;9.83;80.48
75418;BME280;63997;52.112;5.420;2023-04-24T10:04:21;100671.47;;;9.80;78.05
75418;BME280;63997;52.112;5.420;2023-04-24T10:06:49;100671.00;;;9.78;79.23
75418;BME280;63997;52.112;5.420;2023-04-24T10:09:18;100678.78;;;9.92;79.72
75418;BME280;63997;52.112;5.420;2023-04-24T10:11:49;100682.03;;;9.97;76.88
75418;BME280;63997;52.112;5.420;2023-04-24T10:14:21;100683.41;;;10.03;77.49
75418;BME280;63997;52.112;5.420;2023-04-24T10:16:49;100682.47;;;10.08;78.04
75418;BME280;63997;52.112;5.420;2023-04-24T10:19:16;100680.84;;;10.24;77.73
75418;BME280;63997;52.112;5.420;2023-04-24T10:21:45;100687.03;;;10.37;79.49
75418;BME280;63997;52.112;5.420;2023-04-24T10:24:18;100693.72;;;10.43;76.70
75418;BME280;63997;52.112;5.420;2023-04-24T10:26:45;100695.34;;;10.36;78.18
75418;BME280;63997;52.112;5.420;2023-04-24T10:29:13;100693.38;;;10.24;78.02
75418;BME280;63997;52.112;5.420;2023-04-24T10:31:41;100703.53;;;10.13;78.68
75418;BME280;63997;52.112;5.420;2023-04-24T10:34:09;100706.31;;;10.34;79.33
75418;BME280;63997;52.112;5.420;2023-04-24T10:36:48;100708.72;;;10.48;79.51
75418;BME280;63997;52.112;5.420;2023-04-24T10:39:16;100701.25;;;10.71;79.41
75418;BME280;63997;52.112;5.420;2023-04-24T10:41:44;100712.09;;;10.86;78.81
75418;BME280;63997;52.112;5.420;2023-04-24T10:44:14;100710.78;;;10.93;77.17
75418;BME280;63997;52.112;5.420;2023-04-24T10:46:46;100717.81;;;11.18;77.80
75418;BME280;63997;52.112;5.420;2023-04-24T10:49:13;100720.28;;;11.23;76.07
75418;BME280;63997;52.112;5.420;2023-04-24T10:51:51;100720.88;;;11.29;76.29
75418;BME280;63997;52.112;5.420;2023-04-24T10:54:27;100720.59;;;11.22;75.41
75418;BME280;63997;52.112;5.420;2023-04-24T10:59:48;100724.09;;;10.93;75.30
75418;BME280;63997;52.112;5.420;2023-04-24T11:02:15;100727.00;;;11.00;76.24
75418;BME280;63997;52.112;5.420;2023-04-24T11:04:42;100732.09;;;10.93;74.34
75418;BME280;63997;52.112;5.420;2023-04-24T11:07:10;100729.16;;;10.85;74.67
75418;BME280;63997;52.112;5.420;2023-04-24T11:09:37;100721.91;;;10.65;74.39
75418;BME280;63997;52.112;5.420;2023-04-24T11:12:07;100731.34;;;10.63;75.88
75418;BME280;63997;52.112;5.420;2023-04-24T11:17:29;100743.19;;;10.36;75.07
75418;BME280;63997;52.112;5.420;2023-04-24T11:20:11;100754.78;;;10.22;76.48
75418;BME280;63997;52.112;5.420;2023-04-24T11:22:54;100772.47;;;10.10;77.15
75418;BME280;63997;52.112;5.420;2023-04-24T11:25:22;100775.34;;;9.87;77.45
75418;BME280;63997;52.112;5.420;2023-04-24T11:27:50;100775.81;;;9.80;80.15
75418;BME280;63997;52.112;5.420;2023-04-24T11:30:17;100770.84;;;9.88;80.67
75418;BME280;63997;52.112;5.420;2023-04-24T11:32:48;100776.09;;;10.05;81.96
75418;BME280;63997;52.112;5.420;2023-04-24T11:35:23;100771.50;;;10.31;81.44
75418;BME280;63997;52.112;5.420;2023-04-24T11:37:53;100776.88;;;10.61;80.07
75418;BME280;63997;52.112;5.420;2023-04-24T11:40:39;100769.28;;;11.01;80.93
75418;BME280;63997;52.112;5.420;2023-04-24T11:43:06;100778.25;;;11.18;80.35
75418;BME280;63997;52.112;5.420;2023-04-24T11:45:34;100778.00;;;11.31;79.54
75418;BME280;63997;52.112;5.420;2023-04-24T11:48:02;100782.34;;;11.36;78.99
75418;BME280;63997;52.112;5.420;2023-04-24T11:50:29;100782.50;;;11.39;79.03
75418;BME280;63997;52.112;5.420;2023-04-24T11:52:56;100793.94;;;11.73;79.78
75418;BME280;63997;52.112;5.420;2023-04-24T11:55:24;100789.38;;;11.95;77.22
75418;BME280;63997;52.112;5.420;2023-04-24T11:57:56;100794.28;;;12.05;75.82
75418;BME280;63997;52.112;5.420;2023-04-24T12:00:28;100792.72;;;12.04;75.66
75418;BME280;63997;52.112;5.420;2023-04-24T12:03:11;100797.44;;;12.19;73.31
75418;BME280;63997;52.112;5.420;2023-04-24T12:05:39;100808.31;;;12.14;75.04
75418;BME280;63997;52.112;5.420;2023-04-24T12:08:06;100807.81;;;12.00;73.35
75418;BME280;63997;52.112;5.420;2023-04-24T12:10:33;100815.34;;;11.85;73.46
75418;BME280;63997;52.112;5.420;2023-04-24T12:13:00;100814.22;;;11.65;73.55
75418;BME280;63997;52.112;5.420;2023-04-24T12:15:27;100818.47;;;11.46;71.78
75418;BME280;63997;52.112;5.420;2023-04-24T12:17:55;100818.50;;;11.37;72.69
75418;BME280;63997;52.112;5.420;2023-04-24T12:20:29;100815.13;;;11.28;72.93
75418;BME280;63997;52.112;5.420;2023-04-24T12:22:57;100821.63;;;11.18;71.26
75418;BME280;63997;52.112;5.420;2023-04-24T12:25:28;100832.91;;;11.15;71.35
75418;BME280;63997;52.112;5.420;2023-04-24T12:28:11;100842.00;;;11.14;71.91
75418;BME280;63997;52.112;5.420;2023-04-24T12:30:41;100833.97;;;11.23;72.69
75418;BME280;63997;52.112;5.420;2023-04-24T12:33:09;100840.25;;;11.39;71.27
75418;BME280;63997;52.112;5.420;2023-04-24T12:35:35;100837.63;;;11.60;72.51
75418;BME280;63997;52.112;5.420;2023-04-24T12:38:09;100831.31;;;11.85;72.58
75418;BME280;63997;52.112;5.420;2023-04-24T12:40:36;100828.25;;;11.96;71.05
75418;BME280;63997;52.112;5.420;2023-04-24T12:43:16;100833.72;;;11.57;68.10
75418;BME280;63997;52.112;5.420;2023-04-24T12:45:42;100858.06;;;11.26;68.73
75418;BME280;63997;52.112;5.420;2023-04-24T12:48:10;100857.72;;;11.07;69.35
75418;BME280;63997;52.112;5.420;2023-04-24T12:50:37;100862.63;;;10.88;69.57
75418;BME280;63997;52.112;5.420;2023-04-24T12:53:04;100858.78;;;10.76;71.85
75418;BME280;63997;52.112;5.420;2023-04-24T12:55:31;100866.56;;;10.81;71.54
75418;BME280;63997;52.112;5.420;2023-04-24T12:57:58;100866.75;;;10.76;70.48
75418;BME280;63997;52.112;5.420;2023-04-24T13:00:24;100876.94;;;10.74;71.35
75418;BME280;63997;52.112;5.420;2023-04-24T13:02:51;100871.69;;;10.57;70.79
75418;BME280;63997;52.112;5.420;2023-04-24T13:05:17;100879.38;;;10.50;71.50
75418;BME280;63997;52.112;5.420;2023-04-24T13:07:44;100876.41;;;10.43;70.35
75418;BME280;63997;52.112;5.420;2023-04-24T13:10:10;100889.72;;;10.34;72.33
75418;BME280;63997;52.112;5.420;2023-04-24T13:12:37;100888.78;;;10.30;73.23